Time;durP1;ratioP1;P1;durP2;ratioP2;P2;SDS_P1;SDS_P2;PMS_P1;PMS_P2;Temp;Humidity;BMP_temperature;BMP_pressure;BME280_temperature;BME280_humidity;BME280_pressure;Samples;Min_cycle;Max_cycle;Signal;HPM_P1;HPM_P2
2022/12/11 00:00:49;;;;;;;0.40;0.40;;;;;;;13.79;65.91;93029.44;5028609;28;20959;-66
2022/12/11 00:03:17;;;;;;;4.20;2.00;;;;;;;13.56;66.54;93052.63;5028400;28;20440;-67
2022/12/11 00:05:45;;;;;;;1.33;1.23;;;;;;;13.85;65.48;93049.22;5041695;28;20530;-65
2022/12/11 00:08:13;;;;;;;0.47;0.47;;;;;;;13.74;65.84;93072.50;5030229;28;20541;-68
2022/12/11 00:10:46;;;;;;;0.27;0.27;;;;;;;13.72;66.35;93087.06;5040237;28;20443;-65
2022/12/11 00:13:13;;;;;;;0.87;0.87;;;;;;;14.02;65.03;93049.09;5048633;28;20512;-66
2022/12/11 00:15:40;;;;;;;0.17;0.17;;;;;;;14.32;64.17;93042.72;5048597;28;21125;-66
2022/12/11 00:18:12;;;;;;;0.60;0.60;;;;;;;14.36;63.65;93022.50;5034444;28;20447;-68
2022/12/11 00:20:40;;;;;;;2.23;1.43;;;;;;;14.09;64.66;93054.59;5039264;28;20447;-66
2022/12/11 00:23:06;;;;;;;1.23;1.13;;;;;;;13.59;66.23;93067.00;5044618;28;20516;-67
2022/12/11 00:25:33;;;;;;;0.53;0.53;;;;;;;14.20;64.75;93017.03;5030270;28;20810;-68
2022/12/11 00:28:00;;;;;;;4.23;1.67;;;;;;;13.87;65.74;93010.94;5034257;28;21036;-68
2022/12/11 00:30:27;;;;;;;0.47;0.47;;;;;;;14.12;65.26;93007.34;5028560;28;20943;-67
2022/12/11 00:32:54;;;;;;;1.07;1.03;;;;;;;14.15;65.00;93043.56;5042894;28;20481;-67
2022/12/11 00:35:21;;;;;;;1.07;1.00;;;;;;;14.39;64.06;93037.69;5048848;28;20527;-67
2022/12/11 00:37:48;;;;;;;0.47;0.47;;;;;;;14.40;63.78;93031.31;5048379;28;20457;-64
2022/12/11 00:40:15;;;;;;;0.40;0.40;;;;;;;14.47;63.83;93054.53;5048274;28;20496;-66
2022/12/11 00:42:42;;;;;;;1.33;1.23;;;;;;;14.05;64.72;93014.97;5050179;28;20938;-64
2022/12/11 00:45:10;;;;;;;0.83;0.83;;;;;;;13.96;65.56;93037.19;5051815;28;20965;-65
2022/12/11 00:47:37;;;;;;;15.27;1.50;;;;;;;13.61;67.08;93028.00;5051375;28;20478;-65
2022/12/11 00:50:05;;;;;;;0.87;0.43;;;;;;;13.99;66.05;92979.44;5051975;28;20442;-62
2022/12/11 00:52:32;;;;;;;1.73;1.57;;;;;;;13.57;66.73;93042.88;5038029;28;20443;-62
2022/12/11 00:54:59;;;;;;;0.30;0.30;;;;;;;14.12;65.17;93011.84;5051561;28;20450;-63
2022/12/11 00:57:27;;;;;;;0.63;0.63;;;;;;;14.49;63.62;93010.91;5051753;28;20479;-65
2022/12/11 00:59:54;;;;;;;0.63;0.63;;;;;;;14.09;64.88;93059.88;5051972;28;20443;-63
2022/12/11 01:02:21;;;;;;;0.30;0.30;;;;;;;14.34;64.28;93048.44;5039343;28;20444;-64
2022/12/11 01:04:48;;;;;;;14.23;2.17;;;;;;;14.48;63.73;92995.44;5050732;28;20443;-64
2022/12/11 01:07:14;;;;;;;0.70;0.70;;;;;;;14.10;63.72;92993.72;5051353;28;20509;-63
2022/12/11 01:12:28;;;;;;;0.60;0.60;;;;;;;14.25;64.24;93043.19;5032459;28;20440;-65
2022/12/11 01:14:54;;;;;;;0.33;0.33;;;;;;;14.25;64.41;93021.31;5049758;28;21111;-63
2022/12/11 01:17:21;;;;;;;0.30;0.30;;;;;;;14.17;65.06;93053.78;5051897;28;20447;-65
2022/12/11 01:19:48;;;;;;;0.50;0.50;;;;;;;14.65;63.67;93056.66;5051794;28;20584;-63
2022/12/11 01:22:15;;;;;;;23.37;2.97;;;;;;;14.82;63.00;93030.13;5051969;28;20443;-62
2022/12/11 01:24:42;;;;;;;1.07;1.07;;;;;;;14.73;62.69;93053.19;5051263;28;20439;-62
2022/12/11 01:27:10;;;;;;;1.53;1.43;;;;;;;14.36;64.32;93059.38;5050874;28;20473;-64
2022/12/11 01:29:36;;;;;;;1.17;1.17;;;;;;;14.45;63.51;93052.19;5037637;28;20448;-63
2022/12/11 01:32:04;;;;;;;2.67;0.90;;;;;;;14.46;63.49;93064.28;5043991;28;20858;-61
2022/12/11 01:34:32;;;;;;;1.00;0.50;;;;;;;14.22;65.51;93053.59;5031228;28;20468;-61
2022/12/11 01:36:59;;;;;;;1.17;0.87;;;;;;;14.56;64.07;93042.78;5051255;28;20908;-62
2022/12/11 01:39:26;;;;;;;1.70;1.17;;;;;;;14.32;65.33;92990.03;5051140;28;20530;-63
2022/12/11 01:41:58;;;;;;;0.20;0.20;;;;;;;13.68;68.30;93001.94;5032597;28;20448;-63
2022/12/11 01:44:25;;;;;;;0.50;0.50;;;;;;;14.10;67.13;93019.31;5042653;28;20467;-65
2022/12/11 01:46:52;;;;;;;1.03;0.93;;;;;;;13.91;67.75;93016.31;5036297;28;20431;-62
2022/12/11 01:49:22;;;;;;;0.27;0.27;;;;;;;14.05;68.63;93016.88;5050649;28;20475;-61
2022/12/11 01:52:05;;;;;;;0.40;0.40;;;;;;;14.29;66.38;93040.69;5041006;28;20533;-64
2022/12/11 01:54:34;;;;;;;0.30;0.30;;;;;;;14.32;66.92;93023.47;5048827;28;20973;-64
2022/12/11 01:57:07;;;;;;;0.47;0.47;;;;;;;14.10;68.21;92998.22;5040036;28;20443;-65
2022/12/11 01:59:37;;;;;;;3.03;1.83;;;;;;;14.35;67.00;93013.06;5045165;28;20534;-61
2022/12/11 02:02:25;;;;;;;2.80;1.10;;;;;;;14.37;66.94;93045.13;5012953;28;20476;-65
2022/12/11 02:04:53;;;;;;;0.10;0.10;;;;;;;14.43;67.02;93028.03;5050621;28;20443;-63
2022/12/11 02:07:20;;;;;;;0.10;0.10;;;;;;;14.56;66.78;93055.97;5050431;28;20498;-63
2022/12/11 02:09:47;;;;;;;0.10;0.10;;;;;;;13.84;69.31;93058.97;5050580;28;20808;-62
2022/12/11 02:12:38;;;;;;;5.23;1.40;;;;;;;14.30;67.86;93044.88;5040130;28;20468;-63
2022/12/11 02:15:14;;;;;;;0.43;0.43;;;;;;;14.00;69.60;92998.59;5044371;28;20977;-63
2022/12/11 02:18:02;;;;;;;0.50;0.50;;;;;;;14.32;69.01;92974.22;5043245;28;21271;-61
2022/12/11 02:20:39;;;;;;;0.73;0.43;;;;;;;14.32;67.84;92990.03;5038686;28;20471;-63
2022/12/11 02:23:12;;;;;;;0.00;0.00;;;;;;;14.48;65.40;92998.06;5048717;28;20439;-64
2022/12/11 02:25:47;;;;;;;0.40;0.40;;;;;;;15.00;59.75;92968.19;5038766;28;20462;-60
2022/12/11 02:28:29;;;;;;;0.00;0.00;;;;;;;15.79;57.14;92953.66;5034132;28;20483;-62
2022/12/11 02:31:03;;;;;;;0.20;0.20;;;;;;;15.71;57.61;92971.16;5042093;28;20455;-65
2022/12/11 02:33:38;;;;;;;0.57;0.57;;;;;;;15.57;61.22;92959.41;5044311;28;20448;-65
2022/12/11 02:36:08;;;;;;;0.67;0.47;;;;;;;15.64;61.28;92935.84;5042934;28;20443;-63
2022/12/11 02:38:40;;;;;;;0.30;0.30;;;;;;;15.08;63.98;92948.88;5028900;28;20566;-63
2022/12/11 02:41:10;;;;;;;2.87;0.73;;;;;;;15.10;63.27;92954.59;5042170;28;20465;-65
2022/12/11 02:43:39;;;;;;;0.33;0.33;;;;;;;15.22;62.30;92943.25;5050238;28;20442;-65
2022/12/11 02:46:07;;;;;;;1.23;1.20;;;;;;;15.47;61.14;92944.81;5050097;28;20532;-65
2022/12/11 02:48:35;;;;;;;0.67;0.60;;;;;;;15.21;60.93;92924.03;5049220;28;20941;-64
2022/12/11 02:51:05;;;;;;;0.10;0.10;;;;;;;15.56;60.98;92931.47;5046403;28;20483;-66
2022/12/11 02:53:38;;;;;;;0.20;0.20;;;;;;;15.73;60.51;92931.22;5040290;28;20821;-63
2022/12/11 02:56:11;;;;;;;0.00;0.00;;;;;;;15.69;60.41;92962.78;5049430;28;21035;-65
2022/12/11 02:58:46;;;;;;;0.10;0.10;;;;;;;15.86;59.00;92962.53;5050088;28;20462;-66
2022/12/11 03:01:13;;;;;;;0.40;0.40;;;;;;;15.85;58.92;92958.38;5014499;28;20455;-65
2022/12/11 03:03:41;;;;;;;0.10;0.10;;;;;;;15.73;60.49;92968.94;5039152;28;20980;-66
2022/12/11 03:06:12;;;;;;;0.00;0.00;;;;;;;15.44;60.21;92979.03;5047058;28;20438;-65
2022/12/11 03:08:40;;;;;;;0.30;0.30;;;;;;;15.39;60.16;92979.19;5038497;28;20506;-63
2022/12/11 03:11:11;;;;;;;0.00;0.00;;;;;;;15.84;59.98;92948.91;5049495;28;20815;-66
2022/12/11 03:13:41;;;;;;;0.10;0.10;;;;;;;15.49;59.94;92960.31;5042105;28;20448;-63
2022/12/11 03:16:35;;;;;;;0.00;0.00;;;;;;;15.62;59.59;92949.38;5043017;28;20500;-67
2022/12/11 03:19:27;;;;;;;0.00;0.00;;;;;;;15.67;58.16;92932.56;5029441;28;20439;-65
2022/12/11 03:22:11;;;;;;;0.10;0.10;;;;;;;15.89;56.27;92909.03;5048429;28;20538;-65
2022/12/11 03:24:46;;;;;;;0.00;0.00;;;;;;;15.67;55.34;92900.88;5035101;28;20448;-66
2022/12/11 03:27:32;;;;;;;0.17;0.17;;;;;;;16.14;53.54;92926.38;5036821;28;20895;-64
2022/12/11 03:30:05;;;;;;;0.10;0.10;;;;;;;16.72;51.14;92934.66;5035019;28;20505;-66
2022/12/11 03:32:39;;;;;;;0.00;0.00;;;;;;;16.61;51.22;92944.97;5049152;28;20451;-65
2022/12/11 03:35:06;;;;;;;0.20;0.20;;;;;;;16.86;50.22;92942.97;5044077;28;20450;-63
2022/12/11 03:37:38;;;;;;;0.03;0.03;;;;;;;16.75;51.08;92947.97;5039831;28;20486;-64
2022/12/11 03:40:11;;;;;;;0.00;0.00;;;;;;;16.63;50.84;92929.56;5034726;28;20453;-64
2022/12/11 03:42:41;;;;;;;0.10;0.10;;;;;;;16.70;50.64;92953.53;5038295;28;20444;-63
2022/12/11 03:45:08;;;;;;;0.00;0.00;;;;;;;16.88;49.39;92949.44;5032277;28;20929;-66
2022/12/11 03:47:38;;;;;;;0.00;0.00;;;;;;;16.99;48.23;92947.81;5048570;28;20973;-63
2022/12/11 03:50:09;;;;;;;0.00;0.00;;;;;;;16.81;51.74;92974.94;5048743;28;20537;-65
2022/12/11 03:52:39;;;;;;;0.00;0.00;;;;;;;17.07;51.36;92970.72;5034882;28;20973;-64
2022/12/11 03:55:14;;;;;;;0.40;0.40;;;;;;;16.97;50.73;92970.47;5049130;28;20450;-64
2022/12/11 03:57:42;;;;;;;0.10;0.10;;;;;;;16.59;51.25;92967.56;5032268;28;20442;-63
2022/12/11 04:00:13;;;;;;;0.00;0.00;;;;;;;16.64;51.95;92960.16;5037334;28;20938;-64
2022/12/11 04:02:41;;;;;;;0.00;0.00;;;;;;;16.20;53.67;92987.66;5047452;28;20446;-66
2022/12/11 04:05:10;;;;;;;0.40;0.30;;;;;;;15.99;55.05;93008.19;5029106;28;20439;-67
2022/12/11 04:07:37;;;;;;;0.60;0.60;;;;;;;15.81;56.13;93012.97;5042848;28;20462;-64
2022/12/11 04:10:05;;;;;;;0.00;0.00;;;;;;;15.82;55.25;93003.91;5048759;28;20522;-64
2022/12/11 04:12:31;;;;;;;0.40;0.40;;;;;;;15.93;54.22;93010.28;5048713;28;20439;-64
2022/12/11 04:15:02;;;;;;;0.00;0.00;;;;;;;16.21;53.30;93011.09;5029803;28;20444;-64
2022/12/11 04:26:09;;;;;;;0.10;0.10;;;;;;;16.78;52.79;93002.09;5052719;28;20462;-64
2022/12/11 04:28:38;;;;;;;0.10;0.10;;;;;;;16.21;53.61;93011.09;5045324;28;20548;-63
2022/12/11 04:31:09;;;;;;;0.10;0.10;;;;;;;16.59;52.98;93025.72;5046196;28;20496;-65
2022/12/11 04:33:36;;;;;;;0.00;0.00;;;;;;;16.56;53.35;93027.19;5052526;28;21297;-64
2022/12/11 04:36:03;;;;;;;0.00;0.00;;;;;;;16.62;53.00;93020.56;5040049;28;20440;-63
2022/12/11 04:38:31;;;;;;;0.00;0.00;;;;;;;16.45;52.99;93027.97;5050963;28;20526;-65
2022/12/11 04:41:06;;;;;;;0.00;0.00;;;;;;;16.41;52.37;93032.38;5041492;28;20520;-64
2022/12/11 04:43:33;;;;;;;0.00;0.00;;;;;;;16.45;49.64;93015.53;5046159;28;20489;-64
2022/12/11 04:46:08;;;;;;;0.00;0.00;;;;;;;16.98;45.88;93030.97;5042841;28;20438;-65
2022/12/11 04:48:36;;;;;;;0.30;0.30;;;;;;;16.74;47.27;93033.72;5033990;28;20494;-63
2022/12/11 04:51:04;;;;;;;0.10;0.10;;;;;;;16.60;46.77;93049.22;5038572;28;20455;-60
2022/12/11 04:53:31;;;;;;;0.10;0.10;;;;;;;17.42;44.53;93012.38;5042596;28;20482;-63
2022/12/11 04:55:58;;;;;;;0.43;0.30;;;;;;;16.98;44.62;93023.03;5037624;28;20958;-62
2022/12/11 04:58:25;;;;;;;0.10;0.10;;;;;;;17.04;44.31;93037.53;5052363;28;20462;-65
2022/12/11 05:00:53;;;;;;;0.00;0.00;;;;;;;16.94;44.67;93043.31;5037720;28;20460;-62
2022/12/11 05:03:20;;;;;;;0.07;0.07;;;;;;;16.96;44.41;93061.50;5031859;28;20447;-64
2022/12/11 05:05:49;;;;;;;0.00;0.00;;;;;;;17.27;43.42;93058.91;5044689;28;20446;-64
2022/12/11 05:08:17;;;;;;;0.00;0.00;;;;;;;17.63;41.08;93052.59;5051989;28;20498;-61
2022/12/11 05:10:44;;;;;;;0.03;0.03;;;;;;;17.33;42.57;93064.72;5051972;28;20542;-61
2022/12/11 05:13:16;;;;;;;0.10;0.10;;;;;;;17.26;41.46;93059.25;5051346;28;20446;-61
2022/12/11 05:15:43;;;;;;;0.40;0.40;;;;;;;17.52;41.79;93047.06;5051432;28;20523;-63
2022/12/11 05:18:10;;;;;;;0.20;0.20;;;;;;;17.24;42.76;93057.69;5037460;28;20439;-64
2022/12/11 05:20:37;;;;;;;0.30;0.30;;;;;;;16.99;43.76;93061.59;5042145;28;20436;-60
2022/12/11 05:23:04;;;;;;;0.90;0.87;;;;;;;17.23;43.17;93060.69;5045834;28;20451;-65
2022/12/11 05:25:31;;;;;;;0.00;0.00;;;;;;;17.13;42.97;93077.81;5038764;28;20985;-61
2022/12/11 05:27:58;;;;;;;0.10;0.10;;;;;;;17.30;43.15;93081.28;5048492;28;21048;-59
2022/12/11 05:30:25;;;;;;;0.10;0.10;;;;;;;17.27;43.40;93072.13;5039428;28;20446;-63
2022/12/11 05:32:52;;;;;;;0.10;0.10;;;;;;;17.08;43.83;93091.31;5051078;28;20443;-61
2022/12/11 05:35:19;;;;;;;0.00;0.00;;;;;;;17.24;43.72;93089.44;5037670;28;20469;-69
2022/12/11 05:37:46;;;;;;;0.10;0.10;;;;;;;17.17;43.99;93073.41;5051080;28;20482;-63
2022/12/11 05:40:14;;;;;;;0.00;0.00;;;;;;;17.30;43.29;93070.69;5050739;28;20537;-64
2022/12/11 05:42:41;;;;;;;0.00;0.00;;;;;;;17.61;43.03;93074.13;5051072;28;20545;-65
2022/12/11 05:45:08;;;;;;;0.00;0.00;;;;;;;17.82;42.33;93071.22;5050836;28;20526;-65
2022/12/11 05:47:36;;;;;;;0.23;0.23;;;;;;;17.70;42.91;93050.88;5041198;28;20435;-66
2022/12/11 05:50:03;;;;;;;0.00;0.00;;;;;;;17.12;43.33;93049.84;5046650;28;20486;-64
2022/12/11 05:52:31;;;;;;;0.00;0.00;;;;;;;17.61;42.08;93049.56;5037067;28;20490;-63
2022/12/11 05:54:59;;;;;;;2.13;1.10;;;;;;;17.46;42.43;93058.22;5043105;28;20448;-63
2022/12/11 05:57:26;;;;;;;0.00;0.00;;;;;;;17.48;42.54;93040.91;5044251;28;20459;-64
2022/12/11 05:59:52;;;;;;;0.00;0.00;;;;;;;17.41;43.11;93039.97;5050560;28;22363;-61
2022/12/11 06:02:19;;;;;;;0.30;0.30;;;;;;;17.44;42.44;93028.69;5050945;28;20530;-64
2022/12/11 06:04:47;;;;;;;0.10;0.10;;;;;;;17.68;41.38;93044.41;5050132;28;21029;-63
2022/12/11 06:07:14;;;;;;;0.10;0.10;;;;;;;17.85;41.53;93051.97;5050915;28;20455;-62
2022/12/11 06:09:41;;;;;;;2.53;0.63;;;;;;;17.93;41.71;93035.13;5036681;28;20479;-63
2022/12/11 06:12:08;;;;;;;0.10;0.10;;;;;;;17.64;42.23;93048.84;5041229;28;20431;-63
2022/12/11 06:14:35;;;;;;;0.00;0.00;;;;;;;17.91;41.30;93032.06;5044469;28;20508;-66
2022/12/11 06:17:02;;;;;;;0.03;0.03;;;;;;;17.75;41.79;93049.88;5038184;28;21274;-63
2022/12/11 06:19:29;;;;;;;0.00;0.00;;;;;;;18.03;41.29;93034.59;5050593;28;20447;-63
2022/12/11 06:22:02;;;;;;;0.10;0.10;;;;;;;17.58;41.77;93071.41;5037357;28;20454;-62
2022/12/11 06:24:29;;;;;;;0.20;0.20;;;;;;;17.56;41.37;93070.97;5050482;28;20478;-62
2022/12/11 06:26:56;;;;;;;0.10;0.10;;;;;;;17.79;41.01;93070.00;5050173;28;20446;-63
2022/12/11 06:29:22;;;;;;;0.03;0.03;;;;;;;17.58;41.54;93071.41;5036770;28;20486;-64
2022/12/11 06:31:50;;;;;;;0.00;0.00;;;;;;;17.77;40.97;93064.28;5043986;28;20856;-64
2022/12/11 06:34:17;;;;;;;0.10;0.10;;;;;;;18.13;40.26;93073.81;5042586;28;20449;-65
2022/12/11 06:36:44;;;;;;;0.10;0.10;;;;;;;18.12;39.77;93082.88;5050133;28;20849;-64
2022/12/11 06:39:11;;;;;;;0.10;0.10;;;;;;;17.63;40.90;93074.56;5038953;28;20472;-63
2022/12/11 06:41:38;;;;;;;0.10;0.10;;;;;;;17.93;40.90;93082.84;5028924;28;20517;-67
2022/12/11 06:44:04;;;;;;;0.13;0.13;;;;;;;17.99;40.57;93065.56;5028888;28;20470;-66
2022/12/11 06:46:31;;;;;;;0.10;0.10;;;;;;;17.92;40.12;93054.78;5029054;28;20448;-67
2022/12/11 06:48:58;;;;;;;0.00;0.00;;;;;;;17.73;40.05;93057.38;5029085;28;20490;-66
2022/12/11 06:51:26;;;;;;;0.10;0.10;;;;;;;18.04;39.64;93044.88;5029243;28;20538;-65
2022/12/11 06:53:55;;;;;;;0.00;0.00;;;;;;;18.55;39.66;93060.72;5030451;28;20530;-65
2022/12/11 06:56:23;;;;;;;0.00;0.00;;;;;;;18.22;39.02;93074.41;5045427;28;20953;-66
2022/12/11 06:58:50;;;;;;;0.83;0.73;;;;;;;18.17;39.69;93077.31;5049878;28;20496;-64
2022/12/11 07:01:21;;;;;;;0.03;0.03;;;;;;;18.04;39.89;93099.75;5045180;28;20965;-62
2022/12/11 07:03:49;;;;;;;0.10;0.10;;;;;;;18.08;40.54;93084.69;5037453;28;21019;-64
2022/12/11 07:06:16;;;;;;;0.00;0.00;;;;;;;18.08;40.86;93092.66;5047795;28;20436;-62
2022/12/11 07:08:43;;;;;;;0.00;0.00;;;;;;;17.90;40.82;93113.41;5049132;28;20586;-67
2022/12/11 07:11:13;;;;;;;0.10;0.10;;;;;;;17.90;40.57;93094.13;5048267;28;20443;-64
2022/12/11 07:13:41;;;;;;;0.00;0.00;;;;;;;18.26;39.91;93101.75;5038597;28;20437;-68
2022/12/11 07:16:09;;;;;;;0.00;0.00;;;;;;;18.55;40.13;93093.31;5044994;28;20434;-65
2022/12/11 07:18:39;;;;;;;0.47;0.47;;;;;;;18.23;40.43;93081.22;5049035;28;20953;-71
2022/12/11 07:21:07;;;;;;;0.00;0.00;;;;;;;18.50;40.82;93093.59;5048660;28;20801;-62
2022/12/11 07:23:34;;;;;;;0.40;0.40;;;;;;;18.24;41.55;93090.72;5049516;28;20990;-65
2022/12/11 07:26:10;;;;;;;0.10;0.10;;;;;;;18.38;41.17;93101.63;5047059;28;20478;-67
2022/12/11 07:28:37;;;;;;;0.20;0.20;;;;;;;18.06;41.88;93124.03;5019903;28;20524;-65
2022/12/11 07:31:08;;;;;;;0.00;0.00;;;;;;;17.90;42.27;93128.56;5039323;28;20485;-68
2022/12/11 07:33:35;;;;;;;0.10;0.10;;;;;;;17.86;41.59;93125.06;5034340;28;20456;-66
2022/12/11 07:36:05;;;;;;;0.10;0.10;;;;;;;18.36;40.40;93111.81;5046302;28;20905;-66
2022/12/11 07:38:32;;;;;;;0.20;0.20;;;;;;;18.32;41.78;93120.81;5048466;28;20482;-65
2022/12/11 07:41:00;;;;;;;1.90;0.97;;;;;;;18.49;40.64;93131.81;5034697;28;20448;-67
2022/12/11 07:43:27;;;;;;;0.80;0.57;;;;;;;18.16;41.78;93144.69;5048607;28;20446;-64
2022/12/11 07:45:54;;;;;;;0.40;0.40;;;;;;;18.21;41.66;93145.19;5048437;28;20504;-69
2022/12/11 07:48:22;;;;;;;0.33;0.33;;;;;;;18.45;41.73;93146.16;5040945;28;20494;-68
2022/12/11 07:50:49;;;;;;;0.00;0.00;;;;;;;18.07;42.34;93152.81;5039958;28;20461;-70
2022/12/11 07:53:16;;;;;;;0.23;0.23;;;;;;;17.98;42.95;93159.41;5046570;28;20516;-70
2022/12/11 07:55:42;;;;;;;0.83;0.30;;;;;;;18.06;42.73;93139.94;5035059;28;20963;-71
2022/12/11 07:58:09;;;;;;;0.03;0.03;;;;;;;18.11;41.40;93142.31;5048079;28;20445;-71
2022/12/11 08:00:36;;;;;;;0.60;0.60;;;;;;;18.03;41.71;93159.16;5048378;28;20442;-67
2022/12/11 08:03:03;;;;;;;0.10;0.10;;;;;;;17.93;41.75;93147.19;5045453;28;20501;-66
2022/12/11 08:05:31;;;;;;;0.30;0.30;;;;;;;17.87;41.88;93153.09;5047604;28;20546;-66
2022/12/11 08:07:58;;;;;;;3.23;2.63;;;;;;;18.20;41.57;93137.59;5037638;28;20478;-69
2022/12/11 08:10:24;;;;;;;0.20;0.20;;;;;;;17.81;42.56;93149.19;5042881;28;20483;-66
2022/12/11 08:12:51;;;;;;;0.10;0.10;;;;;;;17.81;42.15;93149.19;5048114;28;20526;-69
2022/12/11 08:15:18;;;;;;;0.10;0.10;;;;;;;18.30;41.50;93145.03;5048692;28;20489;-66
2022/12/11 08:17:45;;;;;;;0.10;0.10;;;;;;;17.77;42.86;93149.06;5048223;28;20513;-65
2022/12/11 08:20:15;;;;;;;0.00;0.00;;;;;;;18.05;42.40;93148.97;5049966;28;20443;-69
2022/12/11 08:22:42;;;;;;;0.10;0.10;;;;;;;18.20;42.87;93146.31;5048798;28;20523;-64
2022/12/11 08:25:09;;;;;;;0.00;0.00;;;;;;;17.83;43.28;93146.94;5048543;28;20530;-64
2022/12/11 08:27:38;;;;;;;0.00;0.00;;;;;;;17.92;43.88;93131.63;5047569;28;20474;-66
2022/12/11 08:30:05;;;;;;;0.10;0.10;;;;;;;17.80;43.88;93135.16;5033774;28;21013;-65
2022/12/11 08:32:34;;;;;;;0.10;0.10;;;;;;;17.91;43.97;93143.34;5047850;28;20827;-69
2022/12/11 08:35:01;;;;;;;0.10;0.10;;;;;;;17.82;43.86;93113.59;5034412;28;20828;-69
2022/12/11 08:37:29;;;;;;;0.20;0.20;;;;;;;17.66;43.79;93139.34;5046801;28;20479;-66
2022/12/11 08:39:55;;;;;;;0.00;0.00;;;;;;;17.55;43.69;93147.00;5036438;28;20467;-64
2022/12/11 08:42:22;;;;;;;0.00;0.00;;;;;;;18.04;43.02;93142.16;5036386;28;20534;-64
2022/12/11 08:44:50;;;;;;;0.10;0.10;;;;;;;18.23;42.74;93114.94;5048200;28;20431;-66
2022/12/11 08:47:19;;;;;;;0.00;0.00;;;;;;;18.23;42.70;93130.84;5038964;28;20470;-66
2022/12/11 08:49:45;;;;;;;0.07;0.07;;;;;;;18.04;42.73;93121.72;5041072;28;21005;-66
2022/12/11 08:52:12;;;;;;;0.10;0.10;;;;;;;18.15;42.72;93137.88;5034168;28;21002;-68
2022/12/11 08:54:40;;;;;;;0.10;0.10;;;;;;;18.17;43.20;93128.44;5043024;28;20463;-76
2022/12/11 08:57:07;;;;;;;1.10;0.87;;;;;;;18.31;42.86;93124.56;5041235;28;20435;-72
2022/12/11 08:59:34;;;;;;;0.20;0.20;;;;;;;18.23;42.80;93122.88;5048892;28;20442;-75
2022/12/11 09:02:01;;;;;;;1.60;0.40;;;;;;;18.50;44.49;93133.38;5048083;28;20946;-74
2022/12/11 09:04:28;;;;;;;0.37;0.37;;;;;;;18.46;43.47;93145.78;5049258;28;20981;-72
2022/12/11 09:06:55;;;;;;;6.73;2.23;;;;;;;18.10;44.54;93143.44;5040075;28;20451;-68
2022/12/11 09:09:22;;;;;;;1.07;1.00;;;;;;;17.88;45.53;93138.75;5051455;28;21128;-65
2022/12/11 09:11:49;;;;;;;0.10;0.10;;;;;;;18.19;45.76;93122.81;5046142;28;20458;-71
2022/12/11 09:14:15;;;;;;;0.00;0.00;;;;;;;18.27;45.38;93116.53;5056448;28;20455;-72
2022/12/11 09:16:42;;;;;;;0.10;0.10;;;;;;;18.14;45.71;93128.34;5051529;28;20938;-74
2022/12/11 09:19:14;;;;;;;0.10;0.10;;;;;;;17.64;45.61;93123.78;5040095;28;20451;-71
2022/12/11 09:21:42;;;;;;;0.13;0.13;;;;;;;17.75;44.42;93118.75;5049309;28;20469;-71
2022/12/11 09:24:11;;;;;;;0.10;0.10;;;;;;;18.07;44.42;93114.94;5031207;28;20471;-73
2022/12/11 09:26:38;;;;;;;0.10;0.10;;;;;;;18.37;43.44;93116.03;5047819;28;20790;-72
2022/12/11 09:29:06;;;;;;;0.00;0.00;;;;;;;18.12;43.44;93109.38;5042109;28;20460;-69
2022/12/11 09:31:35;;;;;;;0.20;0.20;;;;;;;17.91;43.90;93116.84;5026886;28;20443;-68
2022/12/11 09:34:05;;;;;;;0.00;0.00;;;;;;;18.29;42.55;93124.91;5041412;28;20549;-70
2022/12/11 09:36:33;;;;;;;0.20;0.20;;;;;;;18.27;42.48;93119.19;5041202;28;20932;-72
2022/12/11 09:39:02;;;;;;;0.37;0.37;;;;;;;18.51;42.25;93103.06;5040812;28;20436;-72
2022/12/11 09:41:35;;;;;;;0.00;0.00;;;;;;;18.31;43.20;93109.44;5033361;28;20451;-73
2022/12/11 09:44:28;;;;;;;0.00;0.00;;;;;;;18.42;43.04;93113.13;5051669;28;20491;-69
2022/12/11 09:46:56;;;;;;;1.07;0.97;;;;;;;17.90;43.38;93100.19;5046923;28;20455;-72
2022/12/11 09:49:38;;;;;;;0.60;0.60;;;;;;;17.89;43.55;93108.47;5050810;28;20597;-69
2022/12/11 09:52:14;;;;;;;0.07;0.07;;;;;;;17.90;43.11;93104.72;5040378;28;20533;-73
2022/12/11 09:54:54;;;;;;;0.10;0.10;;;;;;;18.02;42.91;93112.56;5045412;28;20428;-69
2022/12/11 09:57:24;;;;;;;0.10;0.10;;;;;;;17.58;44.17;93122.50;5044436;28;20450;-70
2022/12/11 10:00:10;;;;;;;0.00;0.00;;;;;;;17.68;43.84;93108.72;5044496;28;20531;-66
2022/12/11 10:02:54;;;;;;;0.20;0.20;;;;;;;17.78;45.45;93102.16;5046661;28;20446;-68
2022/12/11 10:05:44;;;;;;;0.00;0.00;;;;;;;18.03;44.04;93124.69;5021152;28;20443;-67
2022/12/11 10:08:28;;;;;;;1.57;1.47;;;;;;;18.11;44.38;93121.09;5050412;28;20949;-71
2022/12/11 10:11:04;;;;;;;0.50;0.50;;;;;;;17.76;43.73;93114.97;5050834;28;20485;-67
2022/12/11 10:13:41;;;;;;;0.00;0.00;;;;;;;17.98;43.56;93098.47;5051670;28;20439;-73
2022/12/11 10:16:14;;;;;;;0.10;0.10;;;;;;;17.81;43.53;93106.78;5033959;28;20455;-71
2022/12/11 10:18:41;;;;;;;0.80;0.47;;;;;;;17.72;43.88;93103.50;5050343;28;21007;-70
2022/12/11 10:21:09;;;;;;;0.30;0.30;;;;;;;17.73;44.36;93094.47;5036912;28;20513;-69
2022/12/11 10:23:49;;;;;;;0.30;0.30;;;;;;;17.78;44.62;93096.84;5043256;28;20447;-69
2022/12/11 10:26:20;;;;;;;0.73;0.73;;;;;;;17.86;44.92;93093.28;5039484;28;20452;-71
2022/12/11 10:28:47;;;;;;;0.30;0.30;;;;;;;17.53;46.77;93090.19;5035288;28;21024;-70
2022/12/11 10:31:46;;;;;;;0.00;0.00;;;;;;;17.58;45.42;93088.06;5044937;28;20519;-65
2022/12/11 10:34:36;;;;;;;0.00;0.00;;;;;;;17.52;44.90;93096.59;5047373;28;20485;-68
2022/12/11 10:37:03;;;;;;;0.00;0.00;;;;;;;17.60;45.22;93100.97;5053943;28;20438;-72
2022/12/11 10:39:31;;;;;;;0.37;0.37;;;;;;;17.52;46.59;93088.66;5037994;28;20510;-69
2022/12/11 10:41:58;;;;;;;0.83;0.83;;;;;;;17.60;47.32;93100.97;5047546;28;20862;-66
2022/12/11 10:44:28;;;;;;;0.27;0.27;;;;;;;17.42;46.74;93097.09;5039735;28;20482;-66
2022/12/11 10:47:04;;;;;;;0.10;0.10;;;;;;;17.59;47.03;93094.13;5032064;28;20482;-66
2022/12/11 10:49:34;;;;;;;0.27;0.27;;;;;;;17.61;47.40;93092.66;5038893;28;21053;-66
2022/12/11 10:52:09;;;;;;;0.10;0.10;;;;;;;17.26;47.84;93069.84;5041263;28;20538;-65
2022/12/11 10:54:43;;;;;;;0.00;0.00;;;;;;;17.27;48.24;93071.34;5049437;28;20960;-67
2022/12/11 10:57:13;;;;;;;0.00;0.00;;;;;;;17.01;48.26;93069.19;5033395;28;20974;-66
2022/12/11 10:59:48;;;;;;;0.00;0.00;;;;;;;17.20;48.18;93078.03;5048748;28;20438;-63
2022/12/11 11:02:37;;;;;;;0.00;0.00;;;;;;;17.24;48.46;93070.19;5035027;28;20448;-65
2022/12/11 11:05:25;;;;;;;0.33;0.33;;;;;;;17.69;46.93;93070.56;5038338;28;20436;-70
2022/12/11 11:08:18;;;;;;;0.83;0.37;;;;;;;17.94;46.10;93063.94;5033444;28;20439;-66
2022/12/11 11:10:50;;;;;;;0.30;0.30;;;;;;;17.81;46.45;93067.03;5048949;28;21070;-71
2022/12/11 11:13:21;;;;;;;0.20;0.20;;;;;;;17.64;45.26;93067.38;5049007;28;20451;-69
2022/12/11 11:15:48;;;;;;;0.33;0.33;;;;;;;17.62;45.17;93066.97;5034772;28;20447;-68
2022/12/11 11:18:25;;;;;;;0.40;0.40;;;;;;;17.91;44.09;93054.03;5047420;28;20431;-70
2022/12/11 11:20:52;;;;;;;0.20;0.20;;;;;;;18.08;43.93;93063.50;5039706;28;20447;-66
2022/12/11 11:23:21;;;;;;;37.57;1.20;;;;;;;18.47;43.49;93059.81;5039478;28;20661;-67
2022/12/11 11:25:51;;;;;;;0.10;0.10;;;;;;;18.51;43.28;93060.66;5041026;28;20446;-63
2022/12/11 11:28:24;;;;;;;0.20;0.20;;;;;;;18.50;43.32;93069.72;5031675;28;20450;-66
2022/12/11 11:31:06;;;;;;;4.23;3.47;;;;;;;18.41;43.40;93071.78;5036470;28;20486;-65
2022/12/11 11:33:36;;;;;;;6.10;4.20;;;;;;;18.63;43.27;93068.47;5037681;28;20443;-67
2022/12/11 11:36:06;;;;;;;0.30;0.30;;;;;;;18.73;42.41;93062.59;5048395;28;20546;-64
2022/12/11 11:38:51;;;;;;;0.10;0.10;;;;;;;18.58;43.38;93066.09;5040682;28;20821;-63
2022/12/11 11:41:23;;;;;;;0.33;0.33;;;;;;;18.60;43.92;93068.38;5042386;28;20443;-63
2022/12/11 11:43:54;;;;;;;0.20;0.20;;;;;;;18.19;46.37;93073.19;5038192;28;21181;-65
2022/12/11 11:46:33;;;;;;;2.23;1.13;;;;;;;18.03;47.06;93066.38;5041034;28;20702;-66
2022/12/11 11:49:31;;;;;;;0.93;0.93;;;;;;;17.96;48.07;93061.72;5048567;28;20502;-64
2022/12/11 11:52:16;;;;;;;0.27;0.27;;;;;;;17.86;49.14;93061.47;5037336;28;21113;-64
2022/12/11 11:54:52;;;;;;;2.10;1.93;;;;;;;17.68;49.73;93049.72;5042675;28;20981;-67
2022/12/11 11:57:28;;;;;;;2.97;1.07;;;;;;;17.62;50.73;93043.91;5031878;28;20436;-64
2022/12/11 12:00:08;;;;;;;0.30;0.30;;;;;;;17.69;51.23;93043.28;5035336;28;20968;-63